createdAt,value
2019-03-23T00:01:15.709Z,50.03
2019-03-23T00:03:45.939Z,51.60
2019-03-23T00:06:16.184Z,49.27
2019-03-23T00:08:46.530Z,49.87
2019-03-23T00:11:16.748Z,50.07
2019-03-23T00:13:46.999Z,48.63
2019-03-23T00:16:17.161Z,47.47
2019-03-23T00:18:47.385Z,49.87
2019-03-23T00:21:19.961Z,49.93
2019-03-23T00:23:50.162Z,48.97
2019-03-23T00:26:20.636Z,51.30
2019-03-23T00:28:50.812Z,51.20
2019-03-23T00:31:21.079Z,50.40
2019-03-23T00:33:54.264Z,54.40
2019-03-23T00:36:24.643Z,53.37
2019-03-23T00:38:54.792Z,54.00
2019-03-23T00:41:25.077Z,53.63
2019-03-23T00:43:55.340Z,55.80
2019-03-23T00:46:25.697Z,54.53
2019-03-23T00:48:55.868Z,54.80
2019-03-23T00:51:26.117Z,52.20
2019-03-23T00:53:56.335Z,54.37
2019-03-23T00:56:26.647Z,53.30
2019-03-23T00:58:56.969Z,53.03
2019-03-23T01:01:28.616Z,53.03
2019-03-23T01:03:58.735Z,53.57
2019-03-23T01:06:28.907Z,54.50
2019-03-23T01:08:59.148Z,52.80
2019-03-23T01:11:29.413Z,52.83
2019-03-23T01:13:59.654Z,53.07
2019-03-23T01:16:29.910Z,53.17
2019-03-23T01:19:00.086Z,50.93
2019-03-23T01:21:30.328Z,50.70
2019-03-23T01:24:00.500Z,52.37
2019-03-23T01:26:30.706Z,50.93
2019-03-23T01:29:01.000Z,50.03
2019-03-23T01:31:31.251Z,50.67
2019-03-23T01:34:01.430Z,51.77
2019-03-23T01:36:31.600Z,49.70
2019-03-23T01:39:01.821Z,48.33
2019-03-23T01:41:31.984Z,49.97
2019-03-23T01:44:02.206Z,49.13
2019-03-23T01:46:32.300Z,49.30
2019-03-23T01:49:02.462Z,48.33
2019-03-23T01:51:32.664Z,48.43
2019-03-23T01:54:02.797Z,49.33
2019-03-23T01:56:32.949Z,46.70
2019-03-23T01:59:03.157Z,47.00
2019-03-23T02:01:33.300Z,48.87
2019-03-23T02:04:03.537Z,48.13
2019-03-23T02:06:33.741Z,49.27
2019-03-23T02:09:05.913Z,49.57
2019-03-23T02:11:36.094Z,50.40
2019-03-23T02:14:06.268Z,52.03
2019-03-23T02:16:36.496Z,51.30
2019-03-23T02:19:06.635Z,48.30
2019-03-23T02:21:36.853Z,49.70
2019-03-23T02:24:07.072Z,47.93
2019-03-23T02:26:37.237Z,45.60
2019-03-23T02:29:07.459Z,45.37
2019-03-23T02:31:37.683Z,46.50
2019-03-23T02:34:07.866Z,43.77
2019-03-23T02:36:40.649Z,44.97
2019-03-23T02:39:10.777Z,45.03
2019-03-23T02:41:40.908Z,43.87
2019-03-23T02:44:11.132Z,45.13
2019-03-23T02:46:41.339Z,44.23
2019-03-23T02:49:11.490Z,44.87
2019-03-23T02:51:41.744Z,43.70
2019-03-23T02:54:11.936Z,44.00
2019-03-23T02:56:42.211Z,44.30
2019-03-23T02:59:12.394Z,45.07
2019-03-23T03:01:42.605Z,44.30
2019-03-23T03:04:12.801Z,44.53
2019-03-23T03:06:43.009Z,44.27
2019-03-23T03:09:13.250Z,44.40
2019-03-23T03:11:43.423Z,45.27
2019-03-23T03:14:13.645Z,47.33
2019-03-23T03:16:43.829Z,41.53
2019-03-23T03:19:14.069Z,42.77
2019-03-23T03:21:44.291Z,43.63
2019-03-23T03:24:14.483Z,43.23
2019-03-23T03:26:44.737Z,44.20
2019-03-23T03:29:14.956Z,43.20
2019-03-23T03:31:45.162Z,42.03
2019-03-23T03:34:15.374Z,42.93
2019-03-23T03:36:45.600Z,43.90
2019-03-23T03:39:15.740Z,44.10
2019-03-23T03:41:45.851Z,44.47
2019-03-23T03:44:16.083Z,42.07
2019-03-23T03:46:46.317Z,42.43
2019-03-23T03:49:16.485Z,41.80
2019-03-23T03:51:46.677Z,43.20
2019-03-23T03:54:16.922Z,43.57
2019-03-23T03:56:47.074Z,41.37
2019-03-23T03:59:17.247Z,42.93
2019-03-23T04:01:47.488Z,40.80
2019-03-23T04:04:17.723Z,40.93
2019-03-23T04:06:47.935Z,37.80
2019-03-23T04:09:18.102Z,41.20
2019-03-23T04:11:48.308Z,40.73
2019-03-23T04:14:18.508Z,43.00
2019-03-23T04:16:48.752Z,40.83
2019-03-23T04:19:19.031Z,40.10
2019-03-23T04:21:49.249Z,43.50
2019-03-23T04:24:19.460Z,41.10
2019-03-23T04:26:49.682Z,43.07
2019-03-23T04:29:19.967Z,42.93
2019-03-23T04:31:50.200Z,41.43
2019-03-23T04:34:20.383Z,42.43
2019-03-23T04:36:50.641Z,40.10
2019-03-23T04:39:20.805Z,40.60
2019-03-23T04:41:51.048Z,39.17
2019-03-23T04:44:21.356Z,41.50
2019-03-23T04:46:51.547Z,39.47
2019-03-23T04:49:21.769Z,40.40
2019-03-23T04:51:51.948Z,41.30
2019-03-23T04:54:22.317Z,39.33
2019-03-23T04:56:52.490Z,40.50
2019-03-23T04:59:22.733Z,41.67
2019-03-23T05:01:52.879Z,41.20
2019-03-23T05:04:23.038Z,41.57
2019-03-23T05:06:53.294Z,39.47
2019-03-23T05:09:23.464Z,40.03
2019-03-23T05:11:53.768Z,43.00
2019-03-23T05:14:24.016Z,44.73
2019-03-23T05:16:54.296Z,43.53
2019-03-23T05:19:24.544Z,42.73
2019-03-23T05:21:54.810Z,42.97
2019-03-23T05:24:25.064Z,43.90
2019-03-23T05:26:55.267Z,41.87
2019-03-23T05:29:25.548Z,42.63
2019-03-23T05:31:55.801Z,42.57
2019-03-23T05:34:25.925Z,42.33
2019-03-23T05:36:56.922Z,41.60
2019-03-23T05:39:27.163Z,40.17
2019-03-23T05:41:57.338Z,41.07
2019-03-23T05:44:27.556Z,42.07
2019-03-23T05:46:57.722Z,41.20
2019-03-23T05:49:27.880Z,44.10
2019-03-23T05:51:58.073Z,41.57
2019-03-23T05:54:28.256Z,39.13
2019-03-23T05:56:58.443Z,41.83
2019-03-23T05:59:29.244Z,41.77
2019-03-23T06:01:59.493Z,40.57
2019-03-23T06:04:29.651Z,41.63
2019-03-23T06:07:01.993Z,41.60
2019-03-23T06:09:32.153Z,42.33
2019-03-23T06:12:02.368Z,43.10
2019-03-23T06:14:32.563Z,43.13
2019-03-23T06:17:02.811Z,44.63
2019-03-23T06:19:33.004Z,44.57
2019-03-23T06:22:03.224Z,43.73
2019-03-23T06:24:33.438Z,46.00
2019-03-23T06:27:06.979Z,47.90
2019-03-23T06:29:37.277Z,46.40
2019-03-23T06:32:07.408Z,48.83
2019-03-23T06:34:37.734Z,47.47
2019-03-23T06:37:07.896Z,46.83
2019-03-23T06:39:38.147Z,49.40
2019-03-23T06:42:08.324Z,47.97
2019-03-23T06:44:38.562Z,45.57
2019-03-23T06:47:08.722Z,47.57
2019-03-23T06:49:38.929Z,46.60
2019-03-23T06:52:09.161Z,47.20
2019-03-23T06:54:39.333Z,46.67
2019-03-23T06:57:09.589Z,52.13
2019-03-23T06:59:39.755Z,79.13
2019-03-23T07:02:10.258Z,45.97
2019-03-23T07:04:40.537Z,47.60
2019-03-23T07:07:10.711Z,46.97
2019-03-23T07:09:40.871Z,47.17
2019-03-23T07:12:11.081Z,48.20
2019-03-23T07:14:41.395Z,47.50
2019-03-23T07:17:11.532Z,46.00
2019-03-23T07:19:41.734Z,48.03
2019-03-23T07:22:11.990Z,47.87
2019-03-23T07:24:42.111Z,49.53
2019-03-23T07:27:12.341Z,64.07
2019-03-23T07:29:42.453Z,52.47
2019-03-23T07:32:12.624Z,47.13
2019-03-23T07:34:42.941Z,48.60
2019-03-23T07:37:13.187Z,51.60
2019-03-23T07:39:43.439Z,45.20
2019-03-23T07:42:13.683Z,44.20
2019-03-23T07:44:43.830Z,43.27
2019-03-23T07:47:14.013Z,44.00
2019-03-23T07:49:44.233Z,32.23
2019-03-23T07:52:14.534Z,38.50
2019-03-23T07:54:44.685Z,40.07
2019-03-23T07:57:14.888Z,36.33
2019-03-23T07:59:45.034Z,39.03
2019-03-23T08:02:15.168Z,37.97
2019-03-23T08:04:45.393Z,36.00
2019-03-23T08:07:15.645Z,37.70
2019-03-23T08:09:45.917Z,36.77
2019-03-23T08:12:16.129Z,35.27
2019-03-23T08:14:46.404Z,35.47
2019-03-23T08:17:16.492Z,34.87
2019-03-23T08:19:46.736Z,44.93
2019-03-23T08:22:17.084Z,35.07
2019-03-23T08:24:50.078Z,33.73
2019-03-23T08:27:20.289Z,30.63
2019-03-23T08:29:50.472Z,34.67
2019-03-23T08:32:20.600Z,47.35
2019-03-23T08:34:50.729Z,38.67
2019-03-23T08:37:20.840Z,35.77
2019-03-23T08:39:51.144Z,34.63
2019-03-23T08:42:21.346Z,33.33
2019-03-23T08:44:51.540Z,33.57
2019-03-23T08:47:21.644Z,34.87
2019-03-23T08:49:51.885Z,33.87
2019-03-23T08:52:22.067Z,33.60
2019-03-23T08:54:52.205Z,34.37
2019-03-23T08:57:22.535Z,35.70
2019-03-23T08:59:52.685Z,33.42
2019-03-23T09:02:23.039Z,37.63
2019-03-23T09:04:53.241Z,34.97
2019-03-23T09:07:23.416Z,36.03
2019-03-23T09:09:59.040Z,30.57
2019-03-23T09:12:25.303Z,40.30
2019-03-23T09:14:55.516Z,36.47
2019-03-23T09:17:25.645Z,33.67
2019-03-23T09:19:55.856Z,31.70
2019-03-23T09:22:26.039Z,34.97
2019-03-23T09:24:57.173Z,33.70
2019-03-23T09:27:27.471Z,33.87
2019-03-23T09:29:57.647Z,44.67
2019-03-23T09:32:27.894Z,40.17
2019-03-23T09:34:58.001Z,34.93
2019-03-23T09:37:28.107Z,31.63
2019-03-23T09:39:59.805Z,33.80
2019-03-23T09:42:29.941Z,33.97
2019-03-23T09:45:00.355Z,32.87
2019-03-23T09:47:30.409Z,30.50
2019-03-23T09:50:00.544Z,31.40
2019-03-23T09:52:30.668Z,32.70
2019-03-23T09:55:00.831Z,32.57
2019-03-23T09:57:31.040Z,33.73
2019-03-23T10:00:01.149Z,34.07
2019-03-23T10:02:31.255Z,33.27
2019-03-23T10:05:01.401Z,35.03
2019-03-23T10:07:31.544Z,34.53
2019-03-23T10:10:01.652Z,32.77
2019-03-23T10:12:31.936Z,32.30
2019-03-23T10:15:02.087Z,30.33
2019-03-23T10:17:32.328Z,30.23
2019-03-23T10:20:02.533Z,29.03
2019-03-23T10:22:32.749Z,29.40
2019-03-23T10:25:02.925Z,30.57
2019-03-23T10:27:33.103Z,28.47
2019-03-23T10:30:03.241Z,36.20
2019-03-23T10:32:33.388Z,32.10
2019-03-23T10:35:03.653Z,30.03
2019-03-23T10:37:33.940Z,29.43
2019-03-23T10:40:04.259Z,30.10
2019-03-23T10:42:34.468Z,28.73
2019-03-23T10:45:05.155Z,28.67
2019-03-23T10:47:35.383Z,29.30
2019-03-23T10:50:06.563Z,27.23
2019-03-23T10:52:36.762Z,26.20
2019-03-23T10:55:07.302Z,25.77
2019-03-23T10:57:37.499Z,26.70
2019-03-23T11:00:10.188Z,29.33
2019-03-23T11:02:40.422Z,32.00
2019-03-23T11:05:11.010Z,35.80
2019-03-23T11:07:41.385Z,31.27
2019-03-23T11:10:11.761Z,27.90
2019-03-23T11:12:41.996Z,30.05
2019-03-23T11:15:12.187Z,27.37
2019-03-23T11:17:42.979Z,25.43
2019-03-23T11:20:13.243Z,26.23
2019-03-23T11:22:43.404Z,23.40
2019-03-23T11:25:13.564Z,25.20
2019-03-23T11:27:43.736Z,22.23
2019-03-23T11:30:14.012Z,29.02
2019-03-23T11:32:44.187Z,26.10
2019-03-23T11:35:14.790Z,21.20
2019-03-23T11:37:45.177Z,22.33
2019-03-23T11:40:15.695Z,21.77
2019-03-23T11:42:50.239Z,21.73
2019-03-23T11:45:17.675Z,21.93
2019-03-23T11:47:47.828Z,22.47
2019-03-23T11:50:18.072Z,22.47
2019-03-23T11:52:48.355Z,20.20
2019-03-23T11:55:18.554Z,20.37
2019-03-23T11:57:48.780Z,19.43
2019-03-23T12:00:19.917Z,16.77
2019-03-23T12:02:50.165Z,16.57
2019-03-23T12:05:20.400Z,16.03
2019-03-23T12:07:50.532Z,14.47
2019-03-23T12:10:20.740Z,16.97
2019-03-23T12:12:50.915Z,15.67
2019-03-23T12:15:21.057Z,16.43
2019-03-23T12:17:51.180Z,16.57
2019-03-23T12:20:21.437Z,17.07
2019-03-23T12:22:51.599Z,14.77
2019-03-23T12:25:21.712Z,13.70
2019-03-23T12:27:52.003Z,18.43
2019-03-23T12:30:22.142Z,23.10
2019-03-23T12:32:52.334Z,18.70
2019-03-23T12:35:22.661Z,18.20
2019-03-23T12:37:52.822Z,17.13
2019-03-23T12:40:23.044Z,17.33
2019-03-23T12:42:53.251Z,15.83
2019-03-23T12:45:23.459Z,15.73
2019-03-23T12:47:53.669Z,17.50
2019-03-23T12:50:23.861Z,16.77
2019-03-23T12:52:54.007Z,17.87
2019-03-23T12:55:24.176Z,17.87
2019-03-23T12:57:54.484Z,15.17
2019-03-23T13:00:24.743Z,15.97
2019-03-23T13:02:54.945Z,15.27
2019-03-23T13:05:25.165Z,16.33
2019-03-23T13:07:55.356Z,15.60
2019-03-23T13:10:25.515Z,15.23
2019-03-23T13:12:55.722Z,15.33
2019-03-23T13:15:25.855Z,15.27
2019-03-23T13:17:56.122Z,11.97
2019-03-23T13:20:26.436Z,12.13
2019-03-23T13:22:56.956Z,12.13
2019-03-23T13:25:27.147Z,12.13
2019-03-23T13:27:57.521Z,11.37
2019-03-23T13:30:28.648Z,11.13
2019-03-23T13:32:58.885Z,11.83
2019-03-23T13:35:29.335Z,10.97
2019-03-23T13:38:02.475Z,10.60
2019-03-23T13:40:32.724Z,10.37
2019-03-23T13:43:03.759Z,11.30
2019-03-23T13:45:45.753Z,10.73
2019-03-23T13:48:15.925Z,11.23
2019-03-23T13:50:46.108Z,10.83
2019-03-23T13:53:16.307Z,10.67
2019-03-23T13:55:46.460Z,11.30
2019-03-23T13:58:16.676Z,11.33
2019-03-23T14:00:47.008Z,11.90
2019-03-23T14:03:17.232Z,11.37
2019-03-23T14:05:47.415Z,12.50
2019-03-23T14:08:17.653Z,12.30
2019-03-23T14:10:47.943Z,12.63
2019-03-23T14:13:18.181Z,12.47
2019-03-23T14:15:48.672Z,13.00
2019-03-23T14:18:22.337Z,13.57
2019-03-23T14:20:52.708Z,12.53
2019-03-23T14:23:22.957Z,11.60
2019-03-23T14:25:53.203Z,13.17
2019-03-23T14:28:23.471Z,12.77
2019-03-23T14:30:54.070Z,12.87
2019-03-23T14:33:24.872Z,12.70
2019-03-23T14:35:55.167Z,11.93
2019-03-23T14:38:25.473Z,11.83
2019-03-23T14:40:55.721Z,12.83
2019-03-23T14:43:25.962Z,11.93
2019-03-23T14:45:56.153Z,10.47
2019-03-23T14:48:26.296Z,26.90
2019-03-23T14:50:56.588Z,23.00
2019-03-23T14:53:27.013Z,19.53
2019-03-23T14:55:57.233Z,14.33
2019-03-23T14:58:27.412Z,12.93
2019-03-23T15:00:57.574Z,12.43
2019-03-23T15:03:27.732Z,11.67
2019-03-23T15:05:57.920Z,11.30
2019-03-23T15:08:28.029Z,11.83
2019-03-23T15:10:58.204Z,10.30
2019-03-23T15:13:28.344Z,10.73
2019-03-23T15:15:58.576Z,12.40
2019-03-23T15:18:28.750Z,12.00
2019-03-23T15:20:58.997Z,11.93
2019-03-23T15:23:29.158Z,11.20
2019-03-23T15:25:59.365Z,12.57
2019-03-23T15:28:29.638Z,11.47
2019-03-23T15:30:59.913Z,13.07
2019-03-23T15:33:30.127Z,13.00
2019-03-23T15:36:00.307Z,12.40
2019-03-23T15:38:30.498Z,11.40
2019-03-23T15:41:00.657Z,12.73
2019-03-23T15:43:30.924Z,10.97
2019-03-23T15:46:01.439Z,11.40
2019-03-23T15:48:31.639Z,11.83
2019-03-23T15:51:01.872Z,12.23
2019-03-23T15:53:32.112Z,13.40
2019-03-23T15:56:02.370Z,11.97
2019-03-23T15:58:32.612Z,11.60
2019-03-23T16:01:02.764Z,12.03
2019-03-23T16:03:33.075Z,12.47
2019-03-23T16:06:03.219Z,9.77
2019-03-23T16:08:33.376Z,11.23
2019-03-23T16:11:03.496Z,11.40
2019-03-23T16:13:34.007Z,10.90
2019-03-23T16:16:04.167Z,10.30
2019-03-23T16:18:34.342Z,9.53
2019-03-23T16:21:04.685Z,11.20
2019-03-23T16:23:34.879Z,11.37
2019-03-23T16:26:05.495Z,11.20
2019-03-23T16:28:35.651Z,11.53
2019-03-23T16:31:05.908Z,12.00
2019-03-23T16:33:36.046Z,12.73
2019-03-23T16:36:06.279Z,11.83
2019-03-23T16:38:36.451Z,11.37
2019-03-23T16:41:06.668Z,11.13
2019-03-23T16:43:36.911Z,11.40
2019-03-23T16:46:07.131Z,11.80
2019-03-23T16:48:37.342Z,10.70
2019-03-23T16:51:07.593Z,11.27
2019-03-23T16:53:37.830Z,11.10
2019-03-23T16:56:08.007Z,10.73
2019-03-23T16:58:38.269Z,11.97
2019-03-23T17:01:08.388Z,12.60
2019-03-23T17:03:38.559Z,13.93
2019-03-23T17:06:08.861Z,10.90
2019-03-23T17:08:39.045Z,15.23
2019-03-23T17:11:09.293Z,15.23
2019-03-23T17:13:39.523Z,17.40
2019-03-23T17:16:09.777Z,18.37
2019-03-23T17:18:39.785Z,21.87
2019-03-23T17:21:09.888Z,30.23
2019-03-23T17:23:42.119Z,33.83
2019-03-23T17:26:12.255Z,47.53
2019-03-23T17:28:42.371Z,45.27
2019-03-23T17:31:12.691Z,39.63
2019-03-23T17:33:42.763Z,35.03
2019-03-23T17:36:12.843Z,34.77
2019-03-23T17:38:43.049Z,44.60
2019-03-23T17:41:13.373Z,40.67
2019-03-23T17:43:43.612Z,36.03
2019-03-23T17:46:13.820Z,42.37
2019-03-23T17:48:44.076Z,44.13
2019-03-23T17:51:14.326Z,42.03
2019-03-23T17:53:44.481Z,47.97
2019-03-23T17:56:14.718Z,73.30
2019-03-23T17:58:45.034Z,58.20
2019-03-23T18:01:19.749Z,49.90
2019-03-23T18:03:48.576Z,49.57
2019-03-23T18:06:18.802Z,48.23
2019-03-23T18:08:49.055Z,47.27
2019-03-23T18:11:19.296Z,65.90
2019-03-23T18:13:49.524Z,46.53
2019-03-23T18:16:19.688Z,50.43
2019-03-23T18:18:49.937Z,59.37
2019-03-23T18:21:22.172Z,54.63
2019-03-23T18:23:52.643Z,48.37
2019-03-23T18:26:22.872Z,47.17
2019-03-23T18:28:53.227Z,45.87
2019-03-23T18:31:26.623Z,40.10
2019-03-23T18:33:56.920Z,37.13
2019-03-23T18:36:27.383Z,35.03
2019-03-23T18:38:57.783Z,30.87
2019-03-23T18:41:31.106Z,28.63
2019-03-23T18:44:01.498Z,28.00
2019-03-23T18:46:31.731Z,27.00
2019-03-23T18:49:02.077Z,24.47
2019-03-23T18:51:32.396Z,24.20
2019-03-23T18:54:02.647Z,25.93
2019-03-23T18:56:33.272Z,24.97
2019-03-23T18:59:03.623Z,24.37
2019-03-23T19:01:36.685Z,23.40
2019-03-23T19:04:07.520Z,22.20
2019-03-23T19:06:37.696Z,20.60
2019-03-23T19:09:08.663Z,20.87
2019-03-23T19:11:39.083Z,21.70
2019-03-23T19:14:13.438Z,24.10
2019-03-23T19:16:49.715Z,22.97
2019-03-23T19:19:21.156Z,22.93
2019-03-23T19:21:51.510Z,23.20
2019-03-23T19:24:21.762Z,25.77
2019-03-23T19:26:54.490Z,24.27
2019-03-23T19:29:27.574Z,22.03
2019-03-23T19:31:57.072Z,16.43
2019-03-23T19:34:27.489Z,15.80
2019-03-23T19:36:58.814Z,15.97
2019-03-23T19:39:31.976Z,16.87
2019-03-23T19:42:02.260Z,16.33
2019-03-23T19:44:32.544Z,17.53
2019-03-23T19:47:02.789Z,18.90
2019-03-23T19:49:37.194Z,24.57
2019-03-23T19:52:07.454Z,31.50
2019-03-23T19:54:37.663Z,34.47
2019-03-23T19:57:10.335Z,38.13
2019-03-23T19:59:41.124Z,44.47
2019-03-23T20:02:14.068Z,36.70
2019-03-23T20:04:44.272Z,45.57
2019-03-23T20:07:14.680Z,49.27
2019-03-23T20:09:45.128Z,46.87
2019-03-23T20:12:21.540Z,39.77
2019-03-23T20:14:52.144Z,46.50
2019-03-23T20:17:22.518Z,45.40
2019-03-23T20:19:55.253Z,46.90
2019-03-23T20:22:25.505Z,41.33
2019-03-23T20:24:55.902Z,47.73
2019-03-23T20:27:27.399Z,44.10
2019-03-23T20:29:57.640Z,50.97
2019-03-23T20:32:27.928Z,49.80
2019-03-23T20:34:58.339Z,44.43
2019-03-23T20:37:30.138Z,40.67
2019-03-23T20:40:05.670Z,45.70
2019-03-23T20:42:36.247Z,46.13
2019-03-23T20:45:11.980Z,42.70
2019-03-23T20:47:44.094Z,43.23
2019-03-23T20:50:14.379Z,39.37
2019-03-23T20:52:44.714Z,37.93
2019-03-23T20:55:26.084Z,28.77
2019-03-23T20:57:56.961Z,32.37
2019-03-23T21:00:27.328Z,26.43
2019-03-23T21:03:00.090Z,24.93
2019-03-23T21:05:34.128Z,23.50
2019-03-23T21:08:03.043Z,24.43
2019-03-23T21:10:37.066Z,22.33
2019-03-23T21:13:11.491Z,22.37
2019-03-23T21:15:41.884Z,22.33
2019-03-23T21:18:12.243Z,22.47
2019-03-23T21:20:45.430Z,23.47
2019-03-23T21:23:19.679Z,22.70
2019-03-23T21:25:54.165Z,22.27
2019-03-23T21:28:24.412Z,23.50
2019-03-23T21:30:54.610Z,22.87
2019-03-23T21:33:32.020Z,21.43
2019-03-23T21:35:59.618Z,23.30
2019-03-23T21:38:29.812Z,21.83
2019-03-23T21:41:00.284Z,23.53
2019-03-23T21:43:30.568Z,23.33
2019-03-23T21:46:00.854Z,23.80
2019-03-23T21:48:35.291Z,23.07
2019-03-23T21:51:05.748Z,23.47
2019-03-23T21:53:35.976Z,22.97
2019-03-23T21:56:06.362Z,24.43
2019-03-23T21:58:36.616Z,23.60
2019-03-23T22:01:06.833Z,22.53
2019-03-23T22:03:37.108Z,24.00
2019-03-23T22:06:07.341Z,23.97
2019-03-23T22:08:37.496Z,24.03
2019-03-23T22:11:07.811Z,23.77
2019-03-23T22:13:38.059Z,23.33
2019-03-23T22:16:08.293Z,24.27
2019-03-23T22:18:38.596Z,25.47
2019-03-23T22:21:08.876Z,26.70
2019-03-23T22:23:39.170Z,27.73
2019-03-23T22:26:10.566Z,28.93
2019-03-23T22:28:40.849Z,29.40
2019-03-23T22:31:11.166Z,28.07
2019-03-23T22:33:41.521Z,28.60
2019-03-23T22:36:11.709Z,30.70
2019-03-23T22:38:41.893Z,29.43
2019-03-23T22:41:12.191Z,29.37
2019-03-23T22:43:42.480Z,29.50
2019-03-23T22:46:12.638Z,30.97
2019-03-23T22:48:42.870Z,30.10
2019-03-23T22:51:13.106Z,32.17
2019-03-23T22:53:43.331Z,31.40
2019-03-23T22:56:13.652Z,31.33
2019-03-23T22:58:43.913Z,33.63
2019-03-23T23:01:14.076Z,33.63
2019-03-23T23:03:44.254Z,35.37
2019-03-23T23:06:14.488Z,34.90
2019-03-23T23:08:44.674Z,36.23
2019-03-23T23:11:14.908Z,35.63
2019-03-23T23:13:45.123Z,37.53
2019-03-23T23:16:15.296Z,39.67
2019-03-23T23:18:45.472Z,40.07
2019-03-23T23:21:15.800Z,40.17
2019-03-23T23:23:46.053Z,42.37
2019-03-23T23:26:16.312Z,42.37
2019-03-23T23:28:46.537Z,41.00
2019-03-23T23:31:16.761Z,41.70
2019-03-23T23:33:47.046Z,43.00
2019-03-23T23:36:17.264Z,42.43
2019-03-23T23:38:47.474Z,41.83
2019-03-23T23:41:17.615Z,41.43
2019-03-23T23:43:47.914Z,41.73
2019-03-23T23:46:22.519Z,40.30
2019-03-23T23:48:52.677Z,39.53
2019-03-23T23:51:22.847Z,39.83
2019-03-23T23:53:53.063Z,39.30
2019-03-23T23:56:23.239Z,35.40
2019-03-23T23:58:53.592Z,36.60
